KINS/INS METAR and TAF weather

Enter ICAO airport designator
Station Type Date Time Source
KINS METAR 2024/04/18 05:55 UTC NOAA

KINS 180555Z AUTO 28004KT 10SM CLR 19/M06 A2991 RMK AO2 SLP090 T01851056 10289 20178 50009 $


Station Type Date Time Source
KINS Decoded METAR 2024/04/18 05:55 UTC NOAA

Indian Springs, Indian Springs Auxiliary AFLD Nellis AFB, NV, United States (KINS) 36-35N 115-40W
Apr 18, 2024 - 01:55 AM EDT / 2024.04.18 0555 UTC
Wind: from the W (280 degrees) at 5 MPH (4 KT):0
Visibility: 10 mile(s):0
Sky conditions: clear
Temperature: 65.3 F (18.5 C)
Dew Point: 21.9 F (-5.6 C)
Relative Humidity: 18%
Pressure (altimeter): 29.91 in. Hg (1012 hPa)
Pressure tendency: 0.03 inches (0.9 hPa) higher than three hours ago
ob: KINS 180555Z AUTO 28004KT 10SM CLR 19/M06 A2991 RMK AO2 SLP090 T01851056 10289 20178 50009
cycle: 6

Station Type Date Time Source
KINS TAF 2024/04/18 21:59 UTC NOAA